sensor_id;sensor_type;location;lat;lon;timestamp;P1;durP1;ratioP1;P2;durP2;ratioP2
11220;SDS011;8517;53.546;10.104;2024-03-02T00:01:06;21.97;;;16.10;;
11220;SDS011;8517;53.546;10.104;2024-03-02T00:03:33;18.67;;;13.93;;
11220;SDS011;8517;53.546;10.104;2024-03-02T00:06:00;21.73;;;15.90;;
11220;SDS011;8517;53.546;10.104;2024-03-02T00:08:27;20.53;;;15.70;;
11220;SDS011;8517;53.546;10.104;2024-03-02T00:10:57;20.17;;;14.80;;
11220;SDS011;8517;53.546;10.104;2024-03-02T00:13:24;17.93;;;14.03;;
11220;SDS011;8517;53.546;10.104;2024-03-02T00:15:52;24.57;;;16.30;;
11220;SDS011;8517;53.546;10.104;2024-03-02T00:18:24;26.00;;;18.47;;
11220;SDS011;8517;53.546;10.104;2024-03-02T00:20:52;23.17;;;16.47;;
11220;SDS011;8517;53.546;10.104;2024-03-02T00:23:21;24.90;;;17.47;;
11220;SDS011;8517;53.546;10.104;2024-03-02T00:25:49;29.50;;;20.17;;
11220;SDS011;8517;53.546;10.104;2024-03-02T00:28:19;25.20;;;17.43;;
11220;SDS011;8517;53.546;10.104;2024-03-02T00:30:51;30.77;;;20.40;;
11220;SDS011;8517;53.546;10.104;2024-03-02T00:33:23;30.80;;;21.77;;
11220;SDS011;8517;53.546;10.104;2024-03-02T00:35:52;28.90;;;19.97;;
11220;SDS011;8517;53.546;10.104;2024-03-02T00:38:19;28.80;;;20.97;;
11220;SDS011;8517;53.546;10.104;2024-03-02T00:40:47;35.27;;;22.97;;
11220;SDS011;8517;53.546;10.104;2024-03-02T00:43:41;30.07;;;19.43;;
11220;SDS011;8517;53.546;10.104;2024-03-02T00:46:10;31.83;;;22.57;;
11220;SDS011;8517;53.546;10.104;2024-03-02T00:48:40;33.10;;;21.67;;
11220;SDS011;8517;53.546;10.104;2024-03-02T00:51:14;33.50;;;24.13;;
11220;SDS011;8517;53.546;10.104;2024-03-02T00:53:41;34.00;;;23.43;;
11220;SDS011;8517;53.546;10.104;2024-03-02T00:56:09;32.27;;;22.20;;
11220;SDS011;8517;53.546;10.104;2024-03-02T00:58:36;33.80;;;23.83;;
11220;SDS011;8517;53.546;10.104;2024-03-02T01:01:03;33.83;;;23.83;;
11220;SDS011;8517;53.546;10.104;2024-03-02T01:03:31;31.87;;;22.53;;
11220;SDS011;8517;53.546;10.104;2024-03-02T01:05:59;31.63;;;22.47;;
11220;SDS011;8517;53.546;10.104;2024-03-02T01:08:26;34.20;;;23.13;;
11220;SDS011;8517;53.546;10.104;2024-03-02T01:10:53;27.53;;;18.30;;
11220;SDS011;8517;53.546;10.104;2024-03-02T01:13:21;33.27;;;24.00;;
11220;SDS011;8517;53.546;10.104;2024-03-02T01:15:48;34.57;;;23.13;;
11220;SDS011;8517;53.546;10.104;2024-03-02T01:18:15;36.53;;;24.20;;
11220;SDS011;8517;53.546;10.104;2024-03-02T01:20:42;33.10;;;24.13;;
11220;SDS011;8517;53.546;10.104;2024-03-02T01:23:10;34.93;;;23.77;;
11220;SDS011;8517;53.546;10.104;2024-03-02T01:25:37;37.27;;;25.60;;
11220;SDS011;8517;53.546;10.104;2024-03-02T01:28:04;33.23;;;22.57;;
11220;SDS011;8517;53.546;10.104;2024-03-02T01:30:31;31.13;;;22.10;;
11220;SDS011;8517;53.546;10.104;2024-03-02T01:32:58;35.60;;;23.83;;
11220;SDS011;8517;53.546;10.104;2024-03-02T01:35:25;34.27;;;23.60;;
11220;SDS011;8517;53.546;10.104;2024-03-02T01:37:52;34.90;;;24.50;;
11220;SDS011;8517;53.546;10.104;2024-03-02T01:40:21;34.03;;;24.00;;
11220;SDS011;8517;53.546;10.104;2024-03-02T01:42:51;29.27;;;20.57;;
11220;SDS011;8517;53.546;10.104;2024-03-02T01:45:18;34.53;;;23.43;;
11220;SDS011;8517;53.546;10.104;2024-03-02T01:47:45;31.47;;;22.70;;
11220;SDS011;8517;53.546;10.104;2024-03-02T01:50:12;30.67;;;22.43;;
11220;SDS011;8517;53.546;10.104;2024-03-02T01:52:39;36.07;;;24.27;;
11220;SDS011;8517;53.546;10.104;2024-03-02T01:55:06;33.03;;;23.63;;
11220;SDS011;8517;53.546;10.104;2024-03-02T01:57:35;32.37;;;23.53;;
11220;SDS011;8517;53.546;10.104;2024-03-02T02:00:02;35.63;;;23.53;;
11220;SDS011;8517;53.546;10.104;2024-03-02T02:02:30;34.20;;;23.77;;
11220;SDS011;8517;53.546;10.104;2024-03-02T02:04:57;31.30;;;22.93;;
11220;SDS011;8517;53.546;10.104;2024-03-02T02:07:24;33.90;;;22.47;;
11220;SDS011;8517;53.546;10.104;2024-03-02T02:09:51;32.47;;;23.53;;
11220;SDS011;8517;53.546;10.104;2024-03-02T02:12:17;35.47;;;23.90;;
11220;SDS011;8517;53.546;10.104;2024-03-02T02:14:48;31.17;;;21.53;;
11220;SDS011;8517;53.546;10.104;2024-03-02T02:17:15;33.20;;;23.73;;
11220;SDS011;8517;53.546;10.104;2024-03-02T02:19:42;34.27;;;22.97;;
11220;SDS011;8517;53.546;10.104;2024-03-02T02:22:11;37.07;;;24.00;;
11220;SDS011;8517;53.546;10.104;2024-03-02T02:24:39;33.57;;;23.00;;
11220;SDS011;8517;53.546;10.104;2024-03-02T02:27:06;34.50;;;24.53;;
11220;SDS011;8517;53.546;10.104;2024-03-02T02:29:33;28.47;;;21.57;;
11220;SDS011;8517;53.546;10.104;2024-03-02T02:32:00;33.63;;;22.67;;
11220;SDS011;8517;53.546;10.104;2024-03-02T02:34:27;32.67;;;22.40;;
11220;SDS011;8517;53.546;10.104;2024-03-02T02:36:54;32.37;;;24.43;;
11220;SDS011;8517;53.546;10.104;2024-03-02T02:39:22;37.50;;;24.03;;
11220;SDS011;8517;53.546;10.104;2024-03-02T02:41:49;32.83;;;23.40;;
11220;SDS011;8517;53.546;10.104;2024-03-02T02:44:16;34.70;;;23.73;;
11220;SDS011;8517;53.546;10.104;2024-03-02T02:46:43;33.33;;;22.93;;
11220;SDS011;8517;53.546;10.104;2024-03-02T02:49:09;36.10;;;24.53;;
11220;SDS011;8517;53.546;10.104;2024-03-02T02:51:36;32.03;;;23.20;;
11220;SDS011;8517;53.546;10.104;2024-03-02T02:54:03;31.17;;;22.10;;
11220;SDS011;8517;53.546;10.104;2024-03-02T02:56:31;32.93;;;23.03;;
11220;SDS011;8517;53.546;10.104;2024-03-02T02:58:58;26.30;;;17.30;;
11220;SDS011;8517;53.546;10.104;2024-03-02T03:01:25;36.33;;;24.43;;
11220;SDS011;8517;53.546;10.104;2024-03-02T03:03:52;32.70;;;24.10;;
11220;SDS011;8517;53.546;10.104;2024-03-02T03:06:18;30.57;;;23.53;;
11220;SDS011;8517;53.546;10.104;2024-03-02T03:08:46;32.20;;;22.70;;
11220;SDS011;8517;53.546;10.104;2024-03-02T03:11:13;26.73;;;19.17;;
11220;SDS011;8517;53.546;10.104;2024-03-02T03:13:42;30.90;;;22.67;;
11220;SDS011;8517;53.546;10.104;2024-03-02T03:16:09;32.00;;;22.40;;
11220;SDS011;8517;53.546;10.104;2024-03-02T03:18:35;31.90;;;22.37;;
11220;SDS011;8517;53.546;10.104;2024-03-02T03:21:03;32.37;;;22.90;;
11220;SDS011;8517;53.546;10.104;2024-03-02T03:23:30;34.83;;;22.93;;
11220;SDS011;8517;53.546;10.104;2024-03-02T03:25:57;33.67;;;23.03;;
11220;SDS011;8517;53.546;10.104;2024-03-02T03:28:23;33.77;;;23.60;;
11220;SDS011;8517;53.546;10.104;2024-03-02T03:30:51;32.63;;;23.97;;
11220;SDS011;8517;53.546;10.104;2024-03-02T03:33:18;31.93;;;23.13;;
11220;SDS011;8517;53.546;10.104;2024-03-02T03:35:45;30.50;;;21.73;;
11220;SDS011;8517;53.546;10.104;2024-03-02T03:38:13;33.53;;;23.43;;
11220;SDS011;8517;53.546;10.104;2024-03-02T03:40:40;29.57;;;21.00;;
11220;SDS011;8517;53.546;10.104;2024-03-02T03:43:07;31.23;;;21.67;;
11220;SDS011;8517;53.546;10.104;2024-03-02T03:45:33;35.70;;;23.70;;
11220;SDS011;8517;53.546;10.104;2024-03-02T03:48:01;31.50;;;21.73;;
11220;SDS011;8517;53.546;10.104;2024-03-02T03:50:27;28.30;;;19.63;;
11220;SDS011;8517;53.546;10.104;2024-03-02T03:52:54;28.50;;;21.47;;
11220;SDS011;8517;53.546;10.104;2024-03-02T03:55:21;31.23;;;22.47;;
11220;SDS011;8517;53.546;10.104;2024-03-02T03:57:48;34.90;;;21.60;;
11220;SDS011;8517;53.546;10.104;2024-03-02T04:00:15;34.77;;;22.20;;
11220;SDS011;8517;53.546;10.104;2024-03-02T04:02:42;31.07;;;21.30;;
11220;SDS011;8517;53.546;10.104;2024-03-02T04:05:10;30.60;;;21.97;;
11220;SDS011;8517;53.546;10.104;2024-03-02T04:07:37;32.93;;;22.20;;
11220;SDS011;8517;53.546;10.104;2024-03-02T04:10:08;28.93;;;21.33;;
11220;SDS011;8517;53.546;10.104;2024-03-02T04:12:36;30.33;;;21.73;;
11220;SDS011;8517;53.546;10.104;2024-03-02T04:15:03;27.40;;;20.73;;
11220;SDS011;8517;53.546;10.104;2024-03-02T04:17:31;26.60;;;19.83;;
11220;SDS011;8517;53.546;10.104;2024-03-02T04:20:01;28.93;;;21.03;;
11220;SDS011;8517;53.546;10.104;2024-03-02T04:22:32;29.37;;;21.97;;
11220;SDS011;8517;53.546;10.104;2024-03-02T04:25:00;28.67;;;20.03;;
11220;SDS011;8517;53.546;10.104;2024-03-02T04:27:29;31.73;;;22.10;;
11220;SDS011;8517;53.546;10.104;2024-03-02T04:29:56;28.47;;;20.07;;
11220;SDS011;8517;53.546;10.104;2024-03-02T04:32:23;23.43;;;17.87;;
11220;SDS011;8517;53.546;10.104;2024-03-02T04:34:50;29.50;;;21.33;;
11220;SDS011;8517;53.546;10.104;2024-03-02T04:37:17;28.53;;;21.67;;
11220;SDS011;8517;53.546;10.104;2024-03-02T04:39:45;26.63;;;18.67;;
11220;SDS011;8517;53.546;10.104;2024-03-02T04:42:12;26.83;;;21.27;;
11220;SDS011;8517;53.546;10.104;2024-03-02T04:44:38;30.83;;;21.23;;
11220;SDS011;8517;53.546;10.104;2024-03-02T04:47:05;28.00;;;20.20;;
11220;SDS011;8517;53.546;10.104;2024-03-02T04:49:32;30.67;;;22.50;;
11220;SDS011;8517;53.546;10.104;2024-03-02T04:51:59;28.63;;;21.63;;
11220;SDS011;8517;53.546;10.104;2024-03-02T04:54:25;27.50;;;21.37;;
11220;SDS011;8517;53.546;10.104;2024-03-02T04:56:54;24.47;;;18.70;;
11220;SDS011;8517;53.546;10.104;2024-03-02T04:59:20;29.83;;;21.83;;
11220;SDS011;8517;53.546;10.104;2024-03-02T05:01:47;27.73;;;20.17;;
11220;SDS011;8517;53.546;10.104;2024-03-02T05:04:14;25.97;;;19.77;;
11220;SDS011;8517;53.546;10.104;2024-03-02T05:06:41;29.70;;;21.80;;
11220;SDS011;8517;53.546;10.104;2024-03-02T05:09:08;28.33;;;20.93;;
11220;SDS011;8517;53.546;10.104;2024-03-02T05:11:35;26.57;;;20.07;;
11220;SDS011;8517;53.546;10.104;2024-03-02T05:14:36;29.33;;;21.07;;
11220;SDS011;8517;53.546;10.104;2024-03-02T05:17:03;26.17;;;18.70;;
11220;SDS011;8517;53.546;10.104;2024-03-02T05:19:30;27.33;;;20.77;;
11220;SDS011;8517;53.546;10.104;2024-03-02T05:21:57;31.20;;;22.20;;
11220;SDS011;8517;53.546;10.104;2024-03-02T05:24:24;28.67;;;20.33;;
11220;SDS011;8517;53.546;10.104;2024-03-02T05:26:52;28.57;;;21.03;;
11220;SDS011;8517;53.546;10.104;2024-03-02T05:29:19;29.40;;;22.13;;
11220;SDS011;8517;53.546;10.104;2024-03-02T05:31:47;29.53;;;20.60;;
11220;SDS011;8517;53.546;10.104;2024-03-02T05:34:14;29.17;;;20.17;;
11220;SDS011;8517;53.546;10.104;2024-03-02T05:36:41;29.40;;;20.47;;
11220;SDS011;8517;53.546;10.104;2024-03-02T05:39:08;26.67;;;19.77;;
11220;SDS011;8517;53.546;10.104;2024-03-02T05:41:35;26.73;;;20.53;;
11220;SDS011;8517;53.546;10.104;2024-03-02T05:44:03;26.20;;;18.73;;
11220;SDS011;8517;53.546;10.104;2024-03-02T05:46:30;27.67;;;20.37;;
11220;SDS011;8517;53.546;10.104;2024-03-02T05:48:58;26.07;;;18.27;;
11220;SDS011;8517;53.546;10.104;2024-03-02T05:51:25;27.37;;;18.87;;
11220;SDS011;8517;53.546;10.104;2024-03-02T05:53:52;30.03;;;21.47;;
11220;SDS011;8517;53.546;10.104;2024-03-02T05:56:19;25.23;;;17.00;;
11220;SDS011;8517;53.546;10.104;2024-03-02T05:58:45;20.87;;;15.77;;
11220;SDS011;8517;53.546;10.104;2024-03-02T06:01:22;27.83;;;19.83;;
11220;SDS011;8517;53.546;10.104;2024-03-02T06:03:53;28.70;;;19.50;;
11220;SDS011;8517;53.546;10.104;2024-03-02T06:06:21;28.47;;;19.67;;
11220;SDS011;8517;53.546;10.104;2024-03-02T06:08:48;28.30;;;20.07;;
11220;SDS011;8517;53.546;10.104;2024-03-02T06:11:15;22.57;;;15.90;;
11220;SDS011;8517;53.546;10.104;2024-03-02T06:13:42;30.17;;;20.37;;
11220;SDS011;8517;53.546;10.104;2024-03-02T06:16:09;25.57;;;18.90;;
11220;SDS011;8517;53.546;10.104;2024-03-02T06:18:35;27.30;;;19.60;;
11220;SDS011;8517;53.546;10.104;2024-03-02T06:21:02;26.20;;;19.30;;
11220;SDS011;8517;53.546;10.104;2024-03-02T06:23:31;20.87;;;15.67;;
11220;SDS011;8517;53.546;10.104;2024-03-02T06:25:58;25.93;;;19.00;;
11220;SDS011;8517;53.546;10.104;2024-03-02T06:28:25;30.03;;;20.40;;
11220;SDS011;8517;53.546;10.104;2024-03-02T06:30:51;27.73;;;20.10;;
11220;SDS011;8517;53.546;10.104;2024-03-02T06:33:19;26.77;;;19.33;;
11220;SDS011;8517;53.546;10.104;2024-03-02T06:35:46;25.67;;;20.43;;
11220;SDS011;8517;53.546;10.104;2024-03-02T06:38:14;25.20;;;19.13;;
11220;SDS011;8517;53.546;10.104;2024-03-02T06:40:42;20.77;;;15.60;;
11220;SDS011;8517;53.546;10.104;2024-03-02T06:43:09;26.67;;;19.77;;
11220;SDS011;8517;53.546;10.104;2024-03-02T06:45:36;23.20;;;17.13;;
11220;SDS011;8517;53.546;10.104;2024-03-02T06:48:03;25.23;;;19.23;;
11220;SDS011;8517;53.546;10.104;2024-03-02T06:50:30;28.33;;;18.33;;
11220;SDS011;8517;53.546;10.104;2024-03-02T06:52:57;24.03;;;17.63;;
11220;SDS011;8517;53.546;10.104;2024-03-02T06:55:23;22.33;;;15.60;;
11220;SDS011;8517;53.546;10.104;2024-03-02T06:57:52;25.87;;;17.40;;
11220;SDS011;8517;53.546;10.104;2024-03-02T07:00:19;23.57;;;17.73;;
11220;SDS011;8517;53.546;10.104;2024-03-02T07:02:46;26.30;;;18.73;;
11220;SDS011;8517;53.546;10.104;2024-03-02T07:05:13;23.97;;;16.53;;
11220;SDS011;8517;53.546;10.104;2024-03-02T07:07:40;29.40;;;19.77;;
11220;SDS011;8517;53.546;10.104;2024-03-02T07:10:07;25.67;;;18.80;;
11220;SDS011;8517;53.546;10.104;2024-03-02T07:12:34;28.00;;;19.23;;
11220;SDS011;8517;53.546;10.104;2024-03-02T07:15:03;20.43;;;15.33;;
11220;SDS011;8517;53.546;10.104;2024-03-02T07:17:49;21.00;;;15.97;;
11220;SDS011;8517;53.546;10.104;2024-03-02T07:20:16;26.73;;;20.23;;
11220;SDS011;8517;53.546;10.104;2024-03-02T07:22:43;26.73;;;18.83;;
11220;SDS011;8517;53.546;10.104;2024-03-02T07:25:10;18.53;;;12.30;;
11220;SDS011;8517;53.546;10.104;2024-03-02T07:27:37;27.37;;;20.20;;
11220;SDS011;8517;53.546;10.104;2024-03-02T07:30:06;27.93;;;20.07;;
11220;SDS011;8517;53.546;10.104;2024-03-02T07:32:33;27.03;;;19.70;;
11220;SDS011;8517;53.546;10.104;2024-03-02T07:35:00;28.57;;;19.70;;
11220;SDS011;8517;53.546;10.104;2024-03-02T07:37:28;26.60;;;19.13;;
11220;SDS011;8517;53.546;10.104;2024-03-02T07:39:55;26.97;;;19.40;;
11220;SDS011;8517;53.546;10.104;2024-03-02T07:42:22;26.93;;;19.17;;
11220;SDS011;8517;53.546;10.104;2024-03-02T07:44:49;29.47;;;19.77;;
11220;SDS011;8517;53.546;10.104;2024-03-02T07:47:20;25.47;;;19.03;;
11220;SDS011;8517;53.546;10.104;2024-03-02T07:49:47;26.40;;;19.87;;
11220;SDS011;8517;53.546;10.104;2024-03-02T07:52:14;26.17;;;18.57;;
11220;SDS011;8517;53.546;10.104;2024-03-02T07:54:41;28.07;;;20.60;;
11220;SDS011;8517;53.546;10.104;2024-03-02T07:57:08;24.83;;;17.93;;
11220;SDS011;8517;53.546;10.104;2024-03-02T07:59:35;27.17;;;19.70;;
11220;SDS011;8517;53.546;10.104;2024-03-02T08:02:02;25.93;;;19.83;;
11220;SDS011;8517;53.546;10.104;2024-03-02T08:04:31;28.87;;;21.63;;
11220;SDS011;8517;53.546;10.104;2024-03-02T08:06:57;23.90;;;18.13;;
11220;SDS011;8517;53.546;10.104;2024-03-02T08:09:24;26.70;;;19.03;;
11220;SDS011;8517;53.546;10.104;2024-03-02T08:11:51;30.77;;;22.07;;
11220;SDS011;8517;53.546;10.104;2024-03-02T08:14:18;27.53;;;20.63;;
11220;SDS011;8517;53.546;10.104;2024-03-02T08:16:45;27.77;;;21.07;;
11220;SDS011;8517;53.546;10.104;2024-03-02T08:19:12;26.80;;;19.73;;
11220;SDS011;8517;53.546;10.104;2024-03-02T08:21:40;32.17;;;20.73;;
11220;SDS011;8517;53.546;10.104;2024-03-02T08:24:08;29.07;;;20.50;;
11220;SDS011;8517;53.546;10.104;2024-03-02T08:26:35;29.40;;;19.37;;
11220;SDS011;8517;53.546;10.104;2024-03-02T08:29:02;27.27;;;19.67;;
11220;SDS011;8517;53.546;10.104;2024-03-02T08:31:29;26.47;;;19.10;;
11220;SDS011;8517;53.546;10.104;2024-03-02T08:33:56;30.23;;;20.60;;
11220;SDS011;8517;53.546;10.104;2024-03-02T08:36:23;31.53;;;22.87;;
11220;SDS011;8517;53.546;10.104;2024-03-02T08:38:52;30.67;;;21.50;;
11220;SDS011;8517;53.546;10.104;2024-03-02T08:41:21;29.13;;;21.67;;
11220;SDS011;8517;53.546;10.104;2024-03-02T08:43:48;30.50;;;20.67;;
11220;SDS011;8517;53.546;10.104;2024-03-02T08:46:15;31.90;;;22.70;;
11220;SDS011;8517;53.546;10.104;2024-03-02T08:48:42;29.17;;;21.30;;
11220;SDS011;8517;53.546;10.104;2024-03-02T08:51:08;29.33;;;21.23;;
11220;SDS011;8517;53.546;10.104;2024-03-02T08:53:35;31.17;;;22.53;;
11220;SDS011;8517;53.546;10.104;2024-03-02T08:56:04;30.53;;;21.30;;
11220;SDS011;8517;53.546;10.104;2024-03-02T08:58:31;31.83;;;22.53;;
11220;SDS011;8517;53.546;10.104;2024-03-02T09:00:58;29.97;;;22.70;;
11220;SDS011;8517;53.546;10.104;2024-03-02T09:03:25;27.07;;;20.13;;
11220;SDS011;8517;53.546;10.104;2024-03-02T09:05:52;28.93;;;21.53;;
11220;SDS011;8517;53.546;10.104;2024-03-02T09:08:18;29.97;;;20.53;;
11220;SDS011;8517;53.546;10.104;2024-03-02T09:10:45;29.23;;;21.73;;
11220;SDS011;8517;53.546;10.104;2024-03-02T09:13:15;32.00;;;22.43;;
11220;SDS011;8517;53.546;10.104;2024-03-02T09:15:42;26.60;;;20.87;;
11220;SDS011;8517;53.546;10.104;2024-03-02T09:18:09;30.03;;;21.70;;
11220;SDS011;8517;53.546;10.104;2024-03-02T09:20:36;32.17;;;21.40;;
11220;SDS011;8517;53.546;10.104;2024-03-02T09:23:03;30.33;;;22.20;;
11220;SDS011;8517;53.546;10.104;2024-03-02T09:25:30;27.73;;;20.20;;
11220;SDS011;8517;53.546;10.104;2024-03-02T09:28:07;28.53;;;20.80;;
11220;SDS011;8517;53.546;10.104;2024-03-02T09:30:53;26.00;;;19.13;;
11220;SDS011;8517;53.546;10.104;2024-03-02T09:33:20;28.77;;;20.60;;
11220;SDS011;8517;53.546;10.104;2024-03-02T09:35:46;25.50;;;18.73;;
11220;SDS011;8517;53.546;10.104;2024-03-02T09:38:14;25.90;;;19.20;;
11220;SDS011;8517;53.546;10.104;2024-03-02T09:40:41;24.00;;;18.17;;
11220;SDS011;8517;53.546;10.104;2024-03-02T09:43:08;25.17;;;18.27;;
11220;SDS011;8517;53.546;10.104;2024-03-02T09:45:35;25.23;;;18.40;;
11220;SDS011;8517;53.546;10.104;2024-03-02T09:48:04;24.97;;;19.20;;
11220;SDS011;8517;53.546;10.104;2024-03-02T09:50:32;22.87;;;17.63;;
11220;SDS011;8517;53.546;10.104;2024-03-02T09:53:45;21.97;;;16.73;;
11220;SDS011;8517;53.546;10.104;2024-03-02T09:56:15;22.07;;;17.27;;
11220;SDS011;8517;53.546;10.104;2024-03-02T09:58:54;22.67;;;17.03;;
11220;SDS011;8517;53.546;10.104;2024-03-02T10:01:21;22.60;;;17.67;;
11220;SDS011;8517;53.546;10.104;2024-03-02T10:03:49;23.67;;;17.50;;
11220;SDS011;8517;53.546;10.104;2024-03-02T10:06:20;19.17;;;16.43;;
11220;SDS011;8517;53.546;10.104;2024-03-02T10:08:48;23.13;;;15.80;;
11220;SDS011;8517;53.546;10.104;2024-03-02T10:11:27;18.53;;;14.27;;
11220;SDS011;8517;53.546;10.104;2024-03-02T10:16:41;18.33;;;14.43;;
11220;SDS011;8517;53.546;10.104;2024-03-02T10:19:16;17.93;;;14.60;;
11220;SDS011;8517;53.546;10.104;2024-03-02T10:21:44;17.77;;;13.80;;
11220;SDS011;8517;53.546;10.104;2024-03-02T10:24:11;17.03;;;13.60;;
11220;SDS011;8517;53.546;10.104;2024-03-02T10:26:38;19.53;;;15.03;;
11220;SDS011;8517;53.546;10.104;2024-03-02T10:31:53;18.50;;;15.17;;
11220;SDS011;8517;53.546;10.104;2024-03-02T10:34:22;15.80;;;12.33;;
11220;SDS011;8517;53.546;10.104;2024-03-02T10:36:49;16.80;;;13.90;;
11220;SDS011;8517;53.546;10.104;2024-03-02T10:39:16;17.60;;;13.53;;
11220;SDS011;8517;53.546;10.104;2024-03-02T10:41:43;16.73;;;14.17;;
11220;SDS011;8517;53.546;10.104;2024-03-02T10:44:12;16.70;;;13.43;;
11220;SDS011;8517;53.546;10.104;2024-03-02T10:46:38;14.87;;;11.97;;
11220;SDS011;8517;53.546;10.104;2024-03-02T10:49:05;15.37;;;12.47;;
11220;SDS011;8517;53.546;10.104;2024-03-02T10:51:34;18.20;;;12.53;;
11220;SDS011;8517;53.546;10.104;2024-03-02T10:54:03;16.23;;;12.67;;
11220;SDS011;8517;53.546;10.104;2024-03-02T10:56:31;16.17;;;12.87;;
11220;SDS011;8517;53.546;10.104;2024-03-02T10:59:01;13.20;;;11.60;;
11220;SDS011;8517;53.546;10.104;2024-03-02T11:01:29;16.50;;;11.67;;
11220;SDS011;8517;53.546;10.104;2024-03-02T11:03:59;14.67;;;12.00;;
11220;SDS011;8517;53.546;10.104;2024-03-02T11:06:28;13.70;;;10.97;;
11220;SDS011;8517;53.546;10.104;2024-03-02T11:09:01;15.53;;;12.33;;
11220;SDS011;8517;53.546;10.104;2024-03-02T11:11:36;15.70;;;12.50;;
11220;SDS011;8517;53.546;10.104;2024-03-02T11:14:05;15.33;;;11.80;;
11220;SDS011;8517;53.546;10.104;2024-03-02T11:16:37;10.70;;;9.60;;
11220;SDS011;8517;53.546;10.104;2024-03-02T11:19:06;11.90;;;8.60;;
11220;SDS011;8517;53.546;10.104;2024-03-02T11:21:35;14.40;;;12.13;;
11220;SDS011;8517;53.546;10.104;2024-03-02T11:26:59;15.77;;;12.70;;
11220;SDS011;8517;53.546;10.104;2024-03-02T11:29:45;15.10;;;11.80;;
11220;SDS011;8517;53.546;10.104;2024-03-02T11:32:14;15.17;;;11.20;;
11220;SDS011;8517;53.546;10.104;2024-03-02T11:34:43;13.63;;;11.80;;
11220;SDS011;8517;53.546;10.104;2024-03-02T11:37:11;11.90;;;9.47;;
11220;SDS011;8517;53.546;10.104;2024-03-02T11:39:41;14.40;;;10.87;;
11220;SDS011;8517;53.546;10.104;2024-03-02T11:42:10;13.33;;;10.33;;
11220;SDS011;8517;53.546;10.104;2024-03-02T11:44:39;15.77;;;10.77;;
11220;SDS011;8517;53.546;10.104;2024-03-02T11:47:07;12.73;;;10.40;;
11220;SDS011;8517;53.546;10.104;2024-03-02T11:49:37;12.77;;;10.13;;
11220;SDS011;8517;53.546;10.104;2024-03-02T11:52:05;12.70;;;10.03;;
11220;SDS011;8517;53.546;10.104;2024-03-02T11:54:33;12.50;;;9.50;;
11220;SDS011;8517;53.546;10.104;2024-03-02T11:57:02;11.10;;;8.80;;
11220;SDS011;8517;53.546;10.104;2024-03-02T11:59:30;11.10;;;9.00;;
11220;SDS011;8517;53.546;10.104;2024-03-02T12:01:57;12.40;;;9.60;;
11220;SDS011;8517;53.546;10.104;2024-03-02T12:04:26;11.83;;;8.83;;
11220;SDS011;8517;53.546;10.104;2024-03-02T12:06:54;10.87;;;9.40;;
11220;SDS011;8517;53.546;10.104;2024-03-02T12:09:22;15.23;;;10.80;;
11220;SDS011;8517;53.546;10.104;2024-03-02T12:12:00;13.00;;;11.13;;
11220;SDS011;8517;53.546;10.104;2024-03-02T12:14:30;10.77;;;9.03;;
11220;SDS011;8517;53.546;10.104;2024-03-02T12:16:57;15.57;;;11.03;;
11220;SDS011;8517;53.546;10.104;2024-03-02T12:19:24;12.20;;;10.30;;
11220;SDS011;8517;53.546;10.104;2024-03-02T12:21:52;14.40;;;11.83;;
11220;SDS011;8517;53.546;10.104;2024-03-02T12:24:20;12.90;;;11.17;;
11220;SDS011;8517;53.546;10.104;2024-03-02T12:26:48;13.70;;;11.30;;
11220;SDS011;8517;53.546;10.104;2024-03-02T12:29:17;15.60;;;12.37;;
11220;SDS011;8517;53.546;10.104;2024-03-02T12:31:45;14.70;;;10.70;;
11220;SDS011;8517;53.546;10.104;2024-03-02T12:34:15;14.90;;;12.57;;
11220;SDS011;8517;53.546;10.104;2024-03-02T12:36:43;14.10;;;12.13;;
11220;SDS011;8517;53.546;10.104;2024-03-02T12:39:12;15.23;;;11.97;;
11220;SDS011;8517;53.546;10.104;2024-03-02T12:41:39;14.70;;;11.67;;
11220;SDS011;8517;53.546;10.104;2024-03-02T12:44:07;10.63;;;9.37;;
11220;SDS011;8517;53.546;10.104;2024-03-02T12:46:36;13.00;;;10.90;;
11220;SDS011;8517;53.546;10.104;2024-03-02T12:49:07;13.80;;;10.40;;
11220;SDS011;8517;53.546;10.104;2024-03-02T12:51:36;14.07;;;11.00;;
11220;SDS011;8517;53.546;10.104;2024-03-02T12:54:05;13.60;;;10.60;;
11220;SDS011;8517;53.546;10.104;2024-03-02T12:56:32;15.33;;;11.80;;
11220;SDS011;8517;53.546;10.104;2024-03-02T12:58:59;12.63;;;10.27;;
11220;SDS011;8517;53.546;10.104;2024-03-02T13:01:26;13.37;;;10.40;;
11220;SDS011;8517;53.546;10.104;2024-03-02T13:03:54;11.13;;;10.00;;
11220;SDS011;8517;53.546;10.104;2024-03-02T13:06:22;12.90;;;9.97;;
11220;SDS011;8517;53.546;10.104;2024-03-02T13:08:52;11.60;;;10.40;;
11220;SDS011;8517;53.546;10.104;2024-03-02T13:11:20;14.57;;;10.53;;
11220;SDS011;8517;53.546;10.104;2024-03-02T13:13:48;14.20;;;10.17;;
11220;SDS011;8517;53.546;10.104;2024-03-02T13:16:15;12.33;;;10.77;;
11220;SDS011;8517;53.546;10.104;2024-03-02T13:18:44;12.57;;;10.90;;
11220;SDS011;8517;53.546;10.104;2024-03-02T13:21:12;11.93;;;9.60;;
11220;SDS011;8517;53.546;10.104;2024-03-02T13:23:39;12.30;;;10.67;;
11220;SDS011;8517;53.546;10.104;2024-03-02T13:26:06;14.33;;;11.17;;
11220;SDS011;8517;53.546;10.104;2024-03-02T13:28:35;11.77;;;10.40;;
11220;SDS011;8517;53.546;10.104;2024-03-02T13:31:03;15.00;;;11.33;;
11220;SDS011;8517;53.546;10.104;2024-03-02T13:33:30;13.43;;;11.13;;
11220;SDS011;8517;53.546;10.104;2024-03-02T13:35:58;13.67;;;11.00;;
11220;SDS011;8517;53.546;10.104;2024-03-02T13:38:26;12.33;;;10.43;;
11220;SDS011;8517;53.546;10.104;2024-03-02T13:40:53;12.87;;;10.73;;
11220;SDS011;8517;53.546;10.104;2024-03-02T13:43:23;14.67;;;11.80;;
11220;SDS011;8517;53.546;10.104;2024-03-02T13:45:50;14.00;;;11.70;;
11220;SDS011;8517;53.546;10.104;2024-03-02T13:48:18;18.20;;;12.33;;
11220;SDS011;8517;53.546;10.104;2024-03-02T13:50:45;17.07;;;11.57;;
11220;SDS011;8517;53.546;10.104;2024-03-02T13:53:12;13.80;;;10.53;;
11220;SDS011;8517;53.546;10.104;2024-03-02T13:55:40;13.40;;;11.97;;
11220;SDS011;8517;53.546;10.104;2024-03-02T13:58:08;13.83;;;11.83;;
11220;SDS011;8517;53.546;10.104;2024-03-02T14:00:35;14.33;;;11.70;;
11220;SDS011;8517;53.546;10.104;2024-03-02T14:03:02;12.80;;;10.27;;
11220;SDS011;8517;53.546;10.104;2024-03-02T14:05:30;17.00;;;11.60;;
11220;SDS011;8517;53.546;10.104;2024-03-02T14:07:57;12.57;;;10.43;;
11220;SDS011;8517;53.546;10.104;2024-03-02T14:10:25;13.30;;;11.73;;
11220;SDS011;8517;53.546;10.104;2024-03-02T14:12:53;12.40;;;10.40;;
11220;SDS011;8517;53.546;10.104;2024-03-02T14:15:21;13.30;;;11.17;;
11220;SDS011;8517;53.546;10.104;2024-03-02T14:17:48;12.47;;;9.93;;
11220;SDS011;8517;53.546;10.104;2024-03-02T14:20:15;12.67;;;10.33;;
11220;SDS011;8517;53.546;10.104;2024-03-02T14:22:46;11.83;;;9.77;;
11220;SDS011;8517;53.546;10.104;2024-03-02T14:25:14;15.27;;;11.03;;
11220;SDS011;8517;53.546;10.104;2024-03-02T14:27:41;13.70;;;10.57;;
11220;SDS011;8517;53.546;10.104;2024-03-02T14:30:10;13.10;;;9.90;;
11220;SDS011;8517;53.546;10.104;2024-03-02T14:32:38;10.73;;;8.93;;
11220;SDS011;8517;53.546;10.104;2024-03-02T14:35:07;11.00;;;8.77;;
11220;SDS011;8517;53.546;10.104;2024-03-02T14:37:41;11.27;;;9.53;;